createdAt,value
2022-10-09T00:00:37.747Z,95497.47
2022-10-09T00:03:04.132Z,95499.78
2022-10-09T00:05:30.554Z,95489.03
2022-10-09T00:07:57.005Z,95488.34
2022-10-09T00:10:23.363Z,95490.19
2022-10-09T00:12:50.135Z,95494.81
2022-10-09T00:15:16.660Z,95490.56
2022-10-09T00:17:43.019Z,95492.91
2022-10-09T00:20:09.376Z,95494.53
2022-10-09T00:22:35.715Z,95490.00
2022-10-09T00:25:02.065Z,95490.44
2022-10-09T00:27:28.424Z,95495.25
2022-10-09T00:29:54.789Z,95489.75
2022-10-09T00:32:21.145Z,95487.91
2022-10-09T00:34:47.519Z,95485.66
2022-10-09T00:37:13.893Z,95489.94
2022-10-09T00:39:40.241Z,95482.34
2022-10-09T00:42:06.611Z,95480.75
2022-10-09T00:44:32.976Z,95478.56
2022-10-09T00:46:59.347Z,95473.66
2022-10-09T00:49:25.700Z,95481.22
2022-10-09T00:51:52.071Z,95481.00
2022-10-09T00:54:18.445Z,95480.06
2022-10-09T00:56:44.785Z,95476.69
2022-10-09T00:59:11.154Z,95474.81
2022-10-09T01:01:37.576Z,95481.00
2022-10-09T01:04:03.994Z,95480.00
2022-10-09T01:06:30.348Z,95478.81
2022-10-09T01:08:56.720Z,95468.84
2022-10-09T01:11:23.065Z,95464.59
2022-10-09T01:13:49.417Z,95466.06
2022-10-09T01:16:19.240Z,95465.50
2022-10-09T01:18:47.945Z,95466.66
2022-10-09T01:21:14.296Z,95464.38
2022-10-09T01:23:40.652Z,95464.78
2022-10-09T01:26:07.013Z,95457.41
2022-10-09T01:28:33.482Z,95459.47
2022-10-09T01:30:59.932Z,95454.44
2022-10-09T01:33:26.341Z,95450.28
2022-10-09T01:35:52.709Z,95446.03
2022-10-09T01:38:19.053Z,95445.78
2022-10-09T01:40:45.417Z,95446.13
2022-10-09T01:43:11.830Z,95433.63
2022-10-09T01:45:38.172Z,95438.75
2022-10-09T01:48:04.532Z,95441.00
2022-10-09T01:50:30.885Z,95436.38
2022-10-09T01:52:57.269Z,95429.47
2022-10-09T01:55:23.641Z,95434.84
2022-10-09T01:57:49.999Z,95428.44
2022-10-09T02:00:16.363Z,95432.97
2022-10-09T02:02:42.784Z,95423.34
2022-10-09T02:05:09.200Z,95426.44
2022-10-09T02:07:35.549Z,95418.81
2022-10-09T02:10:01.953Z,95422.63
2022-10-09T02:12:28.329Z,95421.84
2022-10-09T02:14:54.686Z,95413.06
2022-10-09T02:17:21.049Z,95421.38
2022-10-09T02:19:47.396Z,95418.25
2022-10-09T02:22:13.748Z,95416.25
2022-10-09T02:24:40.101Z,95415.59
2022-10-09T02:27:06.452Z,95418.50
2022-10-09T02:29:32.812Z,95416.50
2022-10-09T02:31:59.174Z,95417.63
2022-10-09T02:34:25.544Z,95413.72
2022-10-09T02:36:51.899Z,95417.13
2022-10-09T02:39:18.295Z,95420.56
2022-10-09T02:41:44.640Z,95420.63
2022-10-09T02:44:11.025Z,95417.50
2022-10-09T02:46:37.403Z,95418.25
2022-10-09T02:49:03.814Z,95411.38
2022-10-09T02:51:30.191Z,95419.91
2022-10-09T02:53:56.541Z,95415.22
2022-10-09T02:56:22.902Z,95414.75
2022-10-09T02:58:49.250Z,95408.34
2022-10-09T03:01:15.615Z,95418.25
2022-10-09T03:03:41.955Z,95411.94
2022-10-09T03:06:08.305Z,95414.56
2022-10-09T03:08:34.677Z,95416.09
2022-10-09T03:11:01.027Z,95412.88
2022-10-09T03:13:27.381Z,95409.47
2022-10-09T03:15:53.808Z,95411.97
2022-10-09T03:18:20.205Z,95410.88
2022-10-09T03:20:46.572Z,95414.19
2022-10-09T03:23:12.961Z,95419.59
2022-10-09T03:25:39.332Z,95414.09
2022-10-09T03:28:05.759Z,95415.56
2022-10-09T03:30:32.200Z,95416.03
2022-10-09T03:32:58.674Z,95419.91
2022-10-09T03:35:25.031Z,95426.47
2022-10-09T03:37:51.424Z,95421.00
2022-10-09T03:40:17.778Z,95424.31
2022-10-09T03:42:44.151Z,95427.38
2022-10-09T03:45:10.506Z,95424.31
2022-10-09T03:47:36.868Z,95423.72
2022-10-09T03:50:03.239Z,95420.09
2022-10-09T03:52:29.674Z,95426.88
2022-10-09T03:54:56.049Z,95426.53
2022-10-09T03:57:22.399Z,95427.41
2022-10-09T03:59:48.764Z,95421.28
2022-10-09T04:02:15.178Z,95421.19
2022-10-09T04:04:41.601Z,95417.38
2022-10-09T04:07:08.026Z,95422.00
2022-10-09T04:09:34.384Z,95423.06
2022-10-09T04:12:00.726Z,95420.53
2022-10-09T04:14:27.079Z,95425.38
2022-10-09T04:16:53.743Z,95427.00
2022-10-09T04:19:20.112Z,95423.19
2022-10-09T04:21:46.498Z,95427.97
2022-10-09T04:24:12.850Z,95430.25
2022-10-09T04:26:39.219Z,95436.81
2022-10-09T04:29:05.584Z,95425.25
2022-10-09T04:31:32.020Z,95434.03
2022-10-09T04:33:58.467Z,95424.53
2022-10-09T04:36:24.817Z,95428.34
2022-10-09T04:38:51.178Z,95433.22
2022-10-09T04:41:17.540Z,95436.63
2022-10-09T04:43:43.902Z,95435.53
2022-10-09T04:46:10.294Z,95438.91
2022-10-09T04:48:36.703Z,95435.69
2022-10-09T04:51:03.061Z,95436.09
2022-10-09T04:53:29.400Z,95434.94
2022-10-09T04:55:55.768Z,95434.31
2022-10-09T04:58:22.115Z,95431.56
2022-10-09T05:00:48.510Z,95432.00
2022-10-09T05:03:14.913Z,95430.38
2022-10-09T05:05:41.255Z,95434.34
2022-10-09T05:08:07.609Z,95432.84
2022-10-09T05:10:33.952Z,95432.75
2022-10-09T05:13:00.334Z,95435.47
2022-10-09T05:15:26.687Z,95432.13
2022-10-09T05:17:53.052Z,95436.66
2022-10-09T05:20:19.399Z,95429.47
2022-10-09T05:22:45.886Z,95436.34
2022-10-09T05:25:12.350Z,95427.28
2022-10-09T05:27:38.709Z,95436.53
2022-10-09T05:30:05.047Z,95436.13
2022-10-09T05:32:31.405Z,95441.34
2022-10-09T05:34:57.759Z,95430.72
2022-10-09T05:37:24.124Z,95436.09
2022-10-09T05:39:50.485Z,95427.69
2022-10-09T05:42:16.865Z,95430.06
2022-10-09T05:44:43.241Z,95433.06
2022-10-09T05:47:09.592Z,95430.66
2022-10-09T05:49:35.966Z,95425.19
2022-10-09T05:52:02.342Z,95435.41
2022-10-09T05:54:28.683Z,95438.31
2022-10-09T05:56:55.104Z,95428.69
2022-10-09T05:59:21.465Z,95432.47
2022-10-09T06:01:47.856Z,95443.56
2022-10-09T06:04:14.290Z,95435.53
2022-10-09T06:06:40.658Z,95437.75
2022-10-09T06:09:07.034Z,95432.31
2022-10-09T06:11:33.391Z,95441.38
2022-10-09T06:13:59.746Z,95434.03
2022-10-09T06:16:26.232Z,95435.28
2022-10-09T06:18:52.603Z,95435.69
2022-10-09T06:21:18.955Z,95436.41
2022-10-09T06:23:45.391Z,95433.78
2022-10-09T06:26:11.742Z,95435.31
2022-10-09T06:28:38.204Z,95438.16
2022-10-09T06:31:04.680Z,95434.06
2022-10-09T06:33:31.068Z,95441.19
2022-10-09T06:36:05.603Z,95438.63
2022-10-09T06:38:35.990Z,95441.28
2022-10-09T06:41:02.350Z,95440.47
2022-10-09T06:43:28.696Z,95437.47
2022-10-09T06:45:55.161Z,95440.97
2022-10-09T06:48:21.564Z,95442.72
2022-10-09T06:50:47.920Z,95429.75
2022-10-09T06:53:14.271Z,95440.50
2022-10-09T06:55:40.623Z,95443.28
2022-10-09T06:58:06.989Z,95441.38
2022-10-09T07:00:34.645Z,95442.75
2022-10-09T07:03:01.081Z,95445.03
2022-10-09T07:05:27.493Z,95449.00
2022-10-09T07:07:53.848Z,95451.28
2022-10-09T07:10:24.971Z,95458.38
2022-10-09T07:12:51.789Z,95451.63
2022-10-09T07:15:18.215Z,95456.16
2022-10-09T07:17:44.573Z,95461.84
2022-10-09T07:20:10.933Z,95456.25
2022-10-09T07:22:37.365Z,95458.47
2022-10-09T07:25:03.726Z,95460.63
2022-10-09T07:27:30.075Z,95453.47
2022-10-09T07:29:56.440Z,95457.78
2022-10-09T07:32:22.790Z,95459.59
2022-10-09T07:34:49.156Z,95464.66
2022-10-09T07:37:15.510Z,95458.94
2022-10-09T07:39:45.018Z,95464.72
2022-10-09T07:42:11.559Z,95461.22
2022-10-09T07:44:37.923Z,95472.81
2022-10-09T07:47:04.277Z,95470.22
2022-10-09T07:49:30.628Z,95469.44
2022-10-09T07:51:56.991Z,95471.53
2022-10-09T07:54:23.350Z,95472.69
2022-10-09T07:56:49.699Z,95470.81
2022-10-09T07:59:16.052Z,95467.25
2022-10-09T08:01:42.450Z,95474.00
2022-10-09T08:04:08.865Z,95471.50
2022-10-09T08:06:35.210Z,95469.56
2022-10-09T08:09:01.574Z,95467.72
2022-10-09T08:11:27.929Z,95469.84
2022-10-09T08:13:54.298Z,95459.97
2022-10-09T08:16:20.758Z,95466.41
2022-10-09T08:18:47.172Z,95461.06
2022-10-09T08:21:13.525Z,95466.09
2022-10-09T08:23:39.850Z,95472.97
2022-10-09T08:26:06.247Z,95476.75
2022-10-09T08:28:34.973Z,95464.75
2022-10-09T08:31:01.365Z,95475.53
2022-10-09T08:33:27.767Z,95471.38
2022-10-09T08:35:54.127Z,95477.28
2022-10-09T08:38:45.662Z,95466.47
2022-10-09T08:41:06.834Z,95472.56
2022-10-09T08:43:33.227Z,95477.13
2022-10-09T08:45:59.623Z,95473.09
2022-10-09T08:48:26.002Z,95469.25
2022-10-09T08:50:52.386Z,95474.25
2022-10-09T08:53:18.730Z,95476.13
2022-10-09T08:55:45.087Z,95466.31
2022-10-09T08:58:11.420Z,95475.38
2022-10-09T09:00:37.785Z,95471.81
2022-10-09T09:03:04.225Z,95477.19
2022-10-09T09:05:30.595Z,95475.84
2022-10-09T09:07:56.947Z,95468.91
2022-10-09T09:10:23.303Z,95475.03
2022-10-09T09:12:49.884Z,95473.63
2022-10-09T09:15:16.528Z,95474.03
2022-10-09T09:17:42.921Z,95473.72
2022-10-09T09:20:09.331Z,95475.25
2022-10-09T09:22:35.706Z,95470.50
2022-10-09T09:25:02.074Z,95470.41
2022-10-09T09:27:28.444Z,95473.63
2022-10-09T09:29:54.790Z,95465.72
2022-10-09T09:32:21.143Z,95462.00
2022-10-09T09:34:47.510Z,95461.44
2022-10-09T09:37:13.853Z,95463.38
2022-10-09T09:40:35.119Z,95459.91
2022-10-09T09:42:26.571Z,95459.69
2022-10-09T09:44:52.917Z,95461.03
2022-10-09T09:47:19.276Z,95464.28
2022-10-09T09:49:45.835Z,95461.09
2022-10-09T09:52:12.251Z,95459.28
2022-10-09T09:54:38.614Z,95456.81
2022-10-09T09:57:13.889Z,95455.72
2022-10-09T09:59:40.526Z,95457.44
2022-10-09T10:02:06.987Z,95458.59
2022-10-09T10:04:33.387Z,95453.59
2022-10-09T10:06:59.729Z,95457.91
2022-10-09T10:09:26.117Z,95450.25
2022-10-09T10:11:52.489Z,95446.19
2022-10-09T10:14:18.850Z,95447.88
2022-10-09T10:16:45.306Z,95445.97
2022-10-09T10:19:11.810Z,95450.09
2022-10-09T10:21:38.161Z,95444.56
2022-10-09T10:24:04.514Z,95441.25
2022-10-09T10:26:30.915Z,95441.56
2022-10-09T10:28:57.347Z,95432.97
2022-10-09T10:31:23.855Z,95437.69
2022-10-09T10:33:50.228Z,95430.09
2022-10-09T10:36:16.596Z,95426.22
2022-10-09T10:38:42.956Z,95424.03
2022-10-09T10:41:10.256Z,95426.69
2022-10-09T10:43:36.631Z,95421.88
2022-10-09T10:46:02.995Z,95418.78
2022-10-09T10:48:29.347Z,95421.06
2022-10-09T10:50:55.699Z,95414.44
2022-10-09T10:53:22.069Z,95420.63
2022-10-09T10:55:48.435Z,95417.38
2022-10-09T10:58:14.860Z,95418.03
2022-10-09T11:00:41.275Z,95414.47
2022-10-09T11:03:07.762Z,95410.44
2022-10-09T11:05:34.158Z,95404.97
2022-10-09T11:08:00.561Z,95406.84
2022-10-09T11:10:26.985Z,95403.63
2022-10-09T11:12:53.343Z,95403.28
2022-10-09T11:15:19.701Z,95402.84
2022-10-09T11:17:46.074Z,95398.25
2022-10-09T11:20:12.448Z,95393.56
2022-10-09T11:22:38.835Z,95392.47
2022-10-09T11:25:05.197Z,95391.78
2022-10-09T11:27:31.561Z,95385.59
2022-10-09T11:29:58.068Z,95393.19
2022-10-09T11:32:24.452Z,95387.03
2022-10-09T11:34:50.808Z,95379.69
2022-10-09T11:37:17.161Z,95388.88
2022-10-09T11:39:43.539Z,95378.84
2022-10-09T11:42:09.897Z,95375.91
2022-10-09T11:44:36.234Z,95379.84
2022-10-09T11:47:03.966Z,95373.66
2022-10-09T11:49:31.116Z,95375.94
2022-10-09T11:51:57.495Z,95367.06
2022-10-09T11:54:23.843Z,95367.31
2022-10-09T11:56:50.220Z,95363.53
2022-10-09T11:59:16.572Z,95364.81
2022-10-09T12:01:43.070Z,95361.75
2022-10-09T12:04:09.506Z,95359.66
2022-10-09T12:06:35.858Z,95357.25
2022-10-09T12:09:02.225Z,95350.84
2022-10-09T12:11:28.590Z,95356.72
2022-10-09T12:13:54.975Z,95350.81
2022-10-09T12:16:21.379Z,95343.41
2022-10-09T12:18:47.756Z,95343.16
2022-10-09T12:21:14.105Z,95339.94
2022-10-09T12:23:40.469Z,95327.59
2022-10-09T12:26:06.823Z,95330.38
2022-10-09T12:28:33.263Z,95323.97
2022-10-09T12:30:59.726Z,95322.97
2022-10-09T12:33:26.120Z,95321.47
2022-10-09T12:35:52.479Z,95319.00
2022-10-09T12:38:18.840Z,95320.84
2022-10-09T12:40:45.223Z,95314.84
2022-10-09T12:43:11.577Z,95309.78
2022-10-09T12:45:37.996Z,95310.94
2022-10-09T12:48:04.545Z,95311.94
2022-10-09T12:50:30.934Z,95315.78
2022-10-09T12:52:57.297Z,95320.00
2022-10-09T12:55:23.648Z,95320.88
2022-10-09T12:57:50.021Z,95318.97
2022-10-09T13:00:16.369Z,95311.88
2022-10-09T13:02:42.866Z,95306.56
2022-10-09T13:05:09.339Z,95301.28
2022-10-09T13:07:35.717Z,95305.88
2022-10-09T13:10:02.086Z,95296.75
2022-10-09T13:12:28.503Z,95309.09
2022-10-09T13:14:54.852Z,95298.31
2022-10-09T13:17:21.305Z,95299.97
2022-10-09T13:19:47.757Z,95300.66
2022-10-09T13:22:14.096Z,95295.16
2022-10-09T13:24:40.477Z,95298.03
2022-10-09T13:27:06.846Z,95295.78
2022-10-09T13:29:33.207Z,95289.28
2022-10-09T13:31:59.634Z,95288.16
2022-10-09T13:34:26.020Z,95287.59
2022-10-09T13:36:52.436Z,95285.41
2022-10-09T13:39:18.789Z,95282.66
2022-10-09T13:41:45.648Z,95279.00
2022-10-09T13:44:12.010Z,95272.34
2022-10-09T13:46:38.388Z,95271.59
2022-10-09T13:49:04.764Z,95279.75
2022-10-09T13:51:31.264Z,95268.88
2022-10-09T13:53:57.626Z,95266.25
2022-10-09T13:56:23.972Z,95273.97
2022-10-09T13:58:50.363Z,95271.69
2022-10-09T14:01:17.017Z,95272.75
2022-10-09T14:03:43.385Z,95269.38
2022-10-09T14:06:09.733Z,95268.47
2022-10-09T14:08:36.079Z,95270.47
2022-10-09T14:11:02.493Z,95267.50
2022-10-09T14:13:28.850Z,95265.66
2022-10-09T14:15:55.212Z,95264.81
2022-10-09T14:18:21.653Z,95258.19
2022-10-09T14:20:48.007Z,95262.13
2022-10-09T14:23:14.374Z,95265.16
2022-10-09T14:25:40.741Z,95260.84
2022-10-09T14:28:07.204Z,95254.44
2022-10-09T14:30:33.641Z,95248.13
2022-10-09T14:33:00.011Z,95256.06
2022-10-09T14:35:26.364Z,95252.31
2022-10-09T14:37:52.737Z,95245.81
2022-10-09T14:40:19.076Z,95248.41
2022-10-09T14:42:45.432Z,95244.50
2022-10-09T14:45:11.807Z,95243.41
2022-10-09T14:47:38.154Z,95247.47
2022-10-09T14:50:04.526Z,95242.34
2022-10-09T14:52:30.934Z,95241.75
2022-10-09T14:54:57.304Z,95241.91
2022-10-09T14:57:23.687Z,95251.16
2022-10-09T14:59:50.061Z,95246.84
2022-10-09T15:02:16.434Z,95242.09
2022-10-09T15:04:42.788Z,95244.31
2022-10-09T15:07:09.319Z,95240.25
2022-10-09T15:09:35.678Z,95238.00
2022-10-09T15:12:02.040Z,95236.28
2022-10-09T15:14:28.399Z,95230.97
2022-10-09T15:16:54.763Z,95222.28
2022-10-09T15:19:21.116Z,95226.31
2022-10-09T15:21:47.481Z,95226.63
2022-10-09T15:24:13.828Z,95220.03
2022-10-09T15:26:40.187Z,95230.19
2022-10-09T15:29:06.538Z,95224.03
2022-10-09T15:31:32.898Z,95225.91
2022-10-09T15:33:59.275Z,95223.63
2022-10-09T15:36:25.615Z,95225.53
2022-10-09T15:38:52.038Z,95221.25
2022-10-09T15:41:18.394Z,95221.47
2022-10-09T15:43:44.753Z,95225.34
2022-10-09T15:46:11.112Z,95223.97
2022-10-09T15:48:37.461Z,95222.81
2022-10-09T15:51:03.816Z,95221.91
2022-10-09T15:53:30.170Z,95214.84
2022-10-09T15:55:56.519Z,95215.75
2022-10-09T15:58:22.899Z,95218.97
2022-10-09T16:00:49.239Z,95208.66
2022-10-09T16:03:15.613Z,95213.94
2022-10-09T16:05:41.986Z,95211.56
2022-10-09T16:08:08.391Z,95212.13
2022-10-09T16:10:34.771Z,95209.44
2022-10-09T16:13:01.142Z,95204.78
2022-10-09T16:15:27.511Z,95203.13
2022-10-09T16:17:53.867Z,95201.66
2022-10-09T16:20:20.252Z,95201.38
2022-10-09T16:22:46.855Z,95203.75
2022-10-09T16:25:13.410Z,95203.47
2022-10-09T16:27:39.792Z,95206.28
2022-10-09T16:30:06.167Z,95215.09
2022-10-09T16:32:32.537Z,95213.75
2022-10-09T16:34:58.910Z,95217.91
2022-10-09T16:37:25.290Z,95210.38
2022-10-09T16:39:51.670Z,95224.94
2022-10-09T16:42:18.018Z,95222.56
2022-10-09T16:44:44.405Z,95229.34
2022-10-09T16:47:10.757Z,95226.84
2022-10-09T16:49:37.158Z,95228.22
2022-10-09T16:52:03.517Z,95233.03
2022-10-09T16:54:29.901Z,95234.69
2022-10-09T16:56:56.258Z,95231.78
2022-10-09T16:59:22.642Z,95229.34
2022-10-09T17:01:49.001Z,95230.44
2022-10-09T17:04:15.381Z,95235.28
2022-10-09T17:06:41.742Z,95231.47
2022-10-09T17:09:13.334Z,95232.22
2022-10-09T17:11:40.236Z,95232.59
2022-10-09T17:14:06.610Z,95241.22
2022-10-09T17:16:32.970Z,95238.88
2022-10-09T17:18:59.340Z,95242.19
2022-10-09T17:21:27.950Z,95242.25
2022-10-09T17:23:57.458Z,95243.69
2022-10-09T17:26:23.815Z,95252.06
2022-10-09T17:28:50.232Z,95253.06
2022-10-09T17:31:16.637Z,95255.78
2022-10-09T17:33:43.022Z,95253.34
2022-10-09T17:36:09.411Z,95253.88
2022-10-09T17:38:35.793Z,95255.19
2022-10-09T17:41:02.138Z,95255.88
2022-10-09T17:43:28.490Z,95257.78
2022-10-09T17:45:54.858Z,95253.47
2022-10-09T17:48:21.211Z,95262.81
2022-10-09T17:50:47.586Z,95260.84
2022-10-09T17:53:13.975Z,95254.69
2022-10-09T17:55:40.324Z,95257.78
2022-10-09T17:58:06.694Z,95253.91
2022-10-09T18:00:33.055Z,95260.56
2022-10-09T18:02:59.421Z,95255.16
2022-10-09T18:05:25.800Z,95261.44
2022-10-09T18:07:52.520Z,95257.03
2022-10-09T18:10:19.069Z,95258.91
2022-10-09T18:12:45.418Z,95259.50
2022-10-09T18:15:11.785Z,95261.94
2022-10-09T18:17:38.147Z,95258.41
2022-10-09T18:20:04.526Z,95261.06
2022-10-09T18:22:30.879Z,95254.66
2022-10-09T18:24:57.231Z,95259.25
2022-10-09T18:27:23.585Z,95264.28
2022-10-09T18:29:49.939Z,95265.53
2022-10-09T18:32:16.319Z,95258.13
2022-10-09T18:34:46.377Z,95260.25
2022-10-09T18:37:13.044Z,95264.91
2022-10-09T18:39:39.417Z,95262.78
2022-10-09T18:42:05.789Z,95254.66
2022-10-09T18:44:32.156Z,95252.66
2022-10-09T18:46:58.533Z,95257.53
2022-10-09T18:49:24.926Z,95255.34
2022-10-09T18:51:51.267Z,95258.88
2022-10-09T18:54:18.388Z,95258.00
2022-10-09T18:56:45.011Z,95250.41
2022-10-09T18:59:11.373Z,95258.19
2022-10-09T19:01:37.816Z,95251.34
2022-10-09T19:04:04.224Z,95261.97
2022-10-09T19:06:30.585Z,95255.72
2022-10-09T19:08:56.944Z,95254.84
2022-10-09T19:11:23.317Z,95257.22
2022-10-09T19:13:49.679Z,95253.69
2022-10-09T19:16:16.047Z,95260.19
2022-10-09T19:18:42.411Z,95261.34
2022-10-09T19:21:08.753Z,95260.66
2022-10-09T19:23:35.119Z,95259.63
2022-10-09T19:26:03.254Z,95254.91
2022-10-09T19:28:29.669Z,95260.13
2022-10-09T19:30:56.057Z,95265.88
2022-10-09T19:33:22.407Z,95263.66
2022-10-09T19:39:08.516Z,95262.00
2022-10-09T19:41:34.934Z,95259.16
2022-10-09T19:44:01.283Z,95261.41
2022-10-09T19:46:27.655Z,95270.72
2022-10-09T19:48:54.015Z,95269.63
2022-10-09T19:51:20.387Z,95266.22
2022-10-09T19:53:46.739Z,95273.94
2022-10-09T19:56:13.097Z,95264.16
2022-10-09T19:58:39.455Z,95270.25
2022-10-09T20:01:05.856Z,95278.19
2022-10-09T20:03:32.231Z,95271.06
2022-10-09T20:05:58.607Z,95277.56
2022-10-09T20:08:24.971Z,95269.50
2022-10-09T20:10:51.371Z,95276.19
2022-10-09T20:13:17.734Z,95275.16
2022-10-09T20:15:44.106Z,95272.00
2022-10-09T20:18:10.448Z,95278.09
2022-10-09T20:20:36.817Z,95283.16
2022-10-09T20:23:03.191Z,95286.00
2022-10-09T20:25:29.562Z,95287.09
2022-10-09T20:27:55.945Z,95281.44
2022-10-09T20:30:22.313Z,95280.63
2022-10-09T20:32:48.918Z,95286.28
2022-10-09T20:35:15.498Z,95285.59
2022-10-09T20:37:41.885Z,95289.66
2022-10-09T20:40:08.268Z,95287.16
2022-10-09T20:42:34.631Z,95288.44
2022-10-09T20:45:01.001Z,95287.69
2022-10-09T20:47:27.369Z,95291.13
2022-10-09T20:49:53.721Z,95286.13
2022-10-09T20:52:20.075Z,95292.91
2022-10-09T20:54:46.447Z,95285.94
2022-10-09T20:57:12.803Z,95289.19
2022-10-09T20:59:39.162Z,95282.19
2022-10-09T21:02:05.541Z,95291.41
2022-10-09T21:04:31.907Z,95287.06
2022-10-09T21:06:58.287Z,95294.88
2022-10-09T21:09:25.884Z,95291.88
2022-10-09T21:11:53.877Z,95290.53
2022-10-09T21:14:20.223Z,95292.03
2022-10-09T21:16:46.585Z,95300.16
2022-10-09T21:19:12.962Z,95294.03
2022-10-09T21:21:39.310Z,95296.78
2022-10-09T21:24:05.677Z,95292.56
2022-10-09T21:26:32.029Z,95295.28
2022-10-09T21:28:59.954Z,95298.47
2022-10-09T21:31:26.547Z,95297.66
2022-10-09T21:33:52.954Z,95302.88
2022-10-09T21:36:19.306Z,95300.78
2022-10-09T21:38:45.664Z,95300.78
2022-10-09T21:41:12.032Z,95297.09
2022-10-09T21:43:38.381Z,95301.56
2022-10-09T21:46:04.754Z,95295.47
2022-10-09T21:48:31.099Z,95290.88
2022-10-09T21:50:57.517Z,95295.81
2022-10-09T21:53:23.865Z,95290.94
2022-10-09T21:55:50.225Z,95291.13
2022-10-09T21:58:16.587Z,95288.97
2022-10-09T22:00:42.923Z,95290.25
2022-10-09T22:03:09.303Z,95298.19
2022-10-09T22:05:35.648Z,95295.75
2022-10-09T22:08:02.072Z,95300.22
2022-10-09T22:10:28.442Z,95300.22
2022-10-09T22:12:54.796Z,95300.91
2022-10-09T22:15:21.147Z,95301.59
2022-10-09T22:17:47.494Z,95298.59
2022-10-09T22:20:13.861Z,95299.41
2022-10-09T22:22:40.213Z,95291.22
2022-10-09T22:25:06.576Z,95302.81
2022-10-09T22:27:32.932Z,95300.81
2022-10-09T22:29:59.285Z,95300.28
2022-10-09T22:32:25.655Z,95303.75
2022-10-09T22:34:52.002Z,95298.44
2022-10-09T22:37:18.353Z,95298.81
2022-10-09T22:39:44.725Z,95301.16
2022-10-09T22:42:11.075Z,95301.09
2022-10-09T22:44:37.442Z,95294.00
2022-10-09T22:47:03.814Z,95301.38
2022-10-09T22:49:30.159Z,95292.94
2022-10-09T22:51:56.528Z,95292.59
2022-10-09T22:54:22.884Z,95297.59
2022-10-09T22:56:49.253Z,95297.91
2022-10-09T22:59:15.629Z,95289.47
2022-10-09T23:01:42.006Z,95297.19
2022-10-09T23:04:08.436Z,95292.75
2022-10-09T23:06:34.774Z,95299.47
2022-10-09T23:09:01.134Z,95299.59
2022-10-09T23:11:27.497Z,95296.50
2022-10-09T23:13:53.870Z,95297.97
2022-10-09T23:16:20.240Z,95295.31
2022-10-09T23:18:46.603Z,95291.03
2022-10-09T23:21:12.976Z,95292.41
2022-10-09T23:23:39.324Z,95292.94
2022-10-09T23:26:05.696Z,95283.88
2022-10-09T23:28:32.104Z,95290.78
2022-10-09T23:30:58.494Z,95287.47
2022-10-09T23:33:24.846Z,95293.38
2022-10-09T23:35:51.200Z,95292.50
2022-10-09T23:38:17.569Z,95292.06
2022-10-09T23:40:43.920Z,95285.44
2022-10-09T23:43:10.275Z,95287.44
2022-10-09T23:45:36.629Z,95284.56
2022-10-09T23:48:02.980Z,95279.91
2022-10-09T23:50:29.340Z,95280.34
2022-10-09T23:52:55.679Z,95286.69
2022-10-09T23:55:22.035Z,95289.47
2022-10-09T23:57:48.376Z,95288.66
